Time;durP1;ratioP1;P1;durP2;ratioP2;P2;SDS_P1;SDS_P2;PMS_P1;PMS_P2;Temp;Humidity;BMP_temperature;BMP_pressure;BME280_temperature;BME280_humidity;BME280_pressure;Samples;Min_cycle;Max_cycle;Signal;HPM_P1;HPM_P2
2022/09/14 00:01:59;;;;;;;8.90;2.35;;;15.70;99.90;;;;;;5111559;28;20122;-61
2022/09/14 00:04:25;;;;;;;9.93;2.40;;;15.70;99.90;;;;;;5091532;28;20438;-60
2022/09/14 00:06:51;;;;;;;9.07;2.75;;;15.70;99.90;;;;;;5112865;28;20046;-61
2022/09/14 00:09:20;;;;;;;7.18;2.40;;;15.70;99.90;;;;;;5105859;28;20402;-60
2022/09/14 00:11:46;;;;;;;5.22;2.33;;;15.70;99.90;;;;;;5120599;27;20105;-61
2022/09/14 00:14:12;;;;;;;8.93;2.38;;;15.70;99.90;;;;;;5098144;27;20041;-61
2022/09/14 00:16:39;;;;;;;7.15;2.50;;;15.70;99.90;;;;;;5115970;27;20134;-61
2022/09/14 00:19:16;;;;;;;11.02;2.85;;;15.70;99.90;;;;;;5122112;27;20067;-60
2022/09/14 00:21:42;;;;;;;5.43;2.30;;;15.70;99.90;;;;;;5116230;27;20546;-62
2022/09/14 00:24:10;;;;;;;7.68;2.50;;;15.70;99.90;;;;;;5118389;27;20190;-61
2022/09/14 00:26:36;;;;;;;8.68;2.38;;;15.60;99.90;;;;;;5095387;28;20806;-62
2022/09/14 00:29:03;;;;;;;7.38;2.13;;;15.60;99.90;;;;;;5127061;27;20100;-61
2022/09/14 00:31:31;;;;;;;7.22;2.50;;;15.60;99.90;;;;;;5123208;27;20051;-60
2022/09/14 00:33:57;;;;;;;6.35;2.50;;;15.70;99.90;;;;;;5131104;27;20484;-61
2022/09/14 00:36:25;;;;;;;7.63;2.42;;;15.70;99.90;;;;;;5112870;27;20043;-61
2022/09/14 00:38:54;;;;;;;6.55;2.63;;;15.70;99.90;;;;;;5134190;27;20049;-60
2022/09/14 00:41:23;;;;;;;8.98;2.30;;;15.70;99.90;;;;;;5133660;27;20047;-65
2022/09/14 00:44:09;;;;;;;6.10;2.00;;;15.60;99.90;;;;;;5110680;28;20135;-61
2022/09/14 00:46:38;;;;;;;9.43;2.55;;;15.60;99.90;;;;;;5128364;27;20523;-62
2022/09/14 00:49:11;;;;;;;6.05;2.83;;;15.60;99.90;;;;;;5131099;27;20086;-61
2022/09/14 00:51:46;;;;;;;5.82;2.20;;;15.60;99.90;;;;;;5100462;27;20087;-61
2022/09/14 00:54:12;;;;;;;8.57;2.47;;;15.60;99.90;;;;;;5119329;27;20054;-61
2022/09/14 00:56:37;;;;;;;6.03;2.42;;;15.60;99.90;;;;;;5121994;27;20048;-61
2022/09/14 00:59:12;;;;;;;6.88;2.47;;;15.70;99.90;;;;;;5113513;27;20087;-61
2022/09/14 01:01:37;;;;;;;8.82;2.22;;;15.60;99.90;;;;;;5122756;27;20118;-61
2022/09/14 01:04:03;;;;;;;7.25;2.00;;;15.70;99.90;;;;;;5095552;27;20118;-61
2022/09/14 01:06:45;;;;;;;7.35;2.70;;;15.70;99.90;;;;;;5097417;28;20059;-61
2022/09/14 01:09:42;;;;;;;7.70;2.30;;;15.60;99.90;;;;;;5118303;27;20071;-60
2022/09/14 01:12:20;;;;;;;6.75;2.55;;;15.60;99.90;;;;;;5098177;27;20046;-60
2022/09/14 01:14:51;;;;;;;5.47;2.20;;;15.60;99.90;;;;;;5119522;27;20047;-61
2022/09/14 01:17:26;;;;;;;7.07;2.10;;;15.60;99.90;;;;;;5117390;27;20556;-61
2022/09/14 01:19:57;;;;;;;6.88;2.33;;;15.60;99.90;;;;;;5121456;27;20397;-61
2022/09/14 01:22:49;;;;;;;9.82;2.22;;;15.60;99.90;;;;;;5127305;27;20039;-61
2022/09/14 01:25:32;;;;;;;5.72;2.00;;;15.70;99.90;;;;;;5129550;27;20069;-62
2022/09/14 01:28:02;;;;;;;11.90;2.95;;;15.70;99.90;;;;;;5130993;27;20096;-60
2022/09/14 01:30:32;;;;;;;12.40;2.90;;;15.70;99.90;;;;;;5095816;27;20047;-61
2022/09/14 01:33:05;;;;;;;9.27;2.50;;;15.70;99.90;;;;;;5129494;27;20050;-60
2022/09/14 01:35:39;;;;;;;5.65;2.20;;;15.70;99.90;;;;;;5104479;27;20067;-60
2022/09/14 01:38:17;;;;;;;5.72;1.83;;;15.70;99.90;;;;;;5110357;27;20046;-60
2022/09/14 01:40:48;;;;;;;5.40;2.00;;;15.70;99.90;;;;;;5105839;27;20059;-60
2022/09/14 01:43:19;;;;;;;6.97;2.40;;;15.70;99.90;;;;;;5111857;27;20063;-60
2022/09/14 01:45:51;;;;;;;6.10;2.08;;;15.80;99.90;;;;;;5129875;27;20055;-60
2022/09/14 01:48:21;;;;;;;5.80;2.13;;;15.80;99.90;;;;;;5129488;27;20511;-61
2022/09/14 01:50:52;;;;;;;7.75;1.85;;;15.80;99.90;;;;;;5126931;27;20077;-61
2022/09/14 01:53:40;;;;;;;5.88;1.80;;;15.80;99.90;;;;;;5116764;27;20536;-61
2022/09/14 01:56:22;;;;;;;7.93;2.00;;;15.80;99.90;;;;;;5129584;27;20055;-61
2022/09/14 01:59:09;;;;;;;7.43;2.10;;;15.80;99.90;;;;;;5103441;28;20119;-61
2022/09/14 02:01:38;;;;;;;7.63;1.90;;;15.80;99.90;;;;;;5110921;27;20059;-60
2022/09/14 02:04:09;;;;;;;7.45;2.20;;;15.80;99.90;;;;;;5131198;27;20545;-61
2022/09/14 02:06:39;;;;;;;9.15;2.00;;;15.80;99.90;;;;;;5127709;27;20039;-61
2022/09/14 02:09:08;;;;;;;8.30;1.95;;;15.90;99.90;;;;;;5112795;27;20042;-59
2022/09/14 02:11:34;;;;;;;7.63;2.03;;;15.90;99.90;;;;;;5122384;27;20051;-65
2022/09/14 02:14:00;;;;;;;14.63;2.53;;;15.90;99.90;;;;;;5110808;27;20123;-61
2022/09/14 02:16:26;;;;;;;9.40;1.90;;;15.90;99.90;;;;;;5123250;27;20119;-60
2022/09/14 02:18:52;;;;;;;8.45;2.28;;;15.90;99.90;;;;;;5112605;27;20042;-60
2022/09/14 02:21:23;;;;;;;6.75;2.20;;;15.80;99.90;;;;;;5118536;27;20073;-61
2022/09/14 02:23:49;;;;;;;8.82;2.63;;;15.90;99.90;;;;;;5107588;27;20074;-61
2022/09/14 02:26:17;;;;;;;6.10;2.40;;;15.80;99.90;;;;;;5103975;28;20078;-60
2022/09/14 02:28:43;;;;;;;7.78;2.33;;;15.90;99.90;;;;;;5118279;27;20073;-61
2022/09/14 02:31:29;;;;;;;9.63;2.53;;;15.90;99.90;;;;;;5110746;27;20516;-60
2022/09/14 02:34:08;;;;;;;5.93;1.90;;;15.90;99.90;;;;;;5106914;27;20368;-61
2022/09/14 02:36:57;;;;;;;3.90;1.70;;;15.90;99.90;;;;;;5113869;27;20105;-62
2022/09/14 02:39:35;;;;;;;8.90;2.08;;;15.80;99.90;;;;;;5102184;27;20141;-62
2022/09/14 02:42:21;;;;;;;5.15;2.00;;;15.80;99.90;;;;;;5143830;27;20057;-62
2022/09/14 02:45:10;;;;;;;6.55;2.20;;;15.80;99.90;;;;;;5123582;27;20509;-61
2022/09/14 02:47:54;;;;;;;8.07;2.75;;;15.80;99.90;;;;;;5102762;27;20065;-60
2022/09/14 02:50:56;;;;;;;7.28;2.45;;;15.80;99.90;;;;;;5126604;27;20083;-61
2022/09/14 02:53:38;;;;;;;5.97;2.00;;;15.80;99.90;;;;;;5105478;27;20055;-60
2022/09/14 02:56:07;;;;;;;8.88;2.22;;;15.80;99.90;;;;;;5109546;27;20094;-60
2022/09/14 02:58:35;;;;;;;9.43;2.53;;;15.80;99.90;;;;;;5130043;27;20096;-61
2022/09/14 03:01:02;;;;;;;4.47;2.15;;;15.80;99.90;;;;;;5095265;27;20052;-61
2022/09/14 03:03:27;;;;;;;7.82;2.75;;;15.80;99.90;;;;;;5131565;27;20120;-62
2022/09/14 03:05:55;;;;;;;10.73;2.30;;;15.80;99.90;;;;;;5110027;27;20043;-61
2022/09/14 03:08:22;;;;;;;6.35;2.40;;;15.80;99.90;;;;;;5127348;27;20051;-62
2022/09/14 03:10:50;;;;;;;13.18;2.58;;;15.70;99.90;;;;;;5102058;27;20392;-62
2022/09/14 03:13:16;;;;;;;5.93;2.05;;;15.70;99.90;;;;;;5127407;27;20039;-62
2022/09/14 03:15:42;;;;;;;6.97;2.30;;;15.70;99.90;;;;;;5108163;27;20054;-65
2022/09/14 03:18:07;;;;;;;6.03;2.47;;;15.80;99.90;;;;;;5129357;27;20033;-61
2022/09/14 03:20:34;;;;;;;7.00;2.50;;;15.70;99.90;;;;;;5128797;27;20651;-60
2022/09/14 03:23:00;;;;;;;11.55;2.97;;;15.70;99.90;;;;;;5104857;28;20043;-61
2022/09/14 03:25:27;;;;;;;6.30;2.20;;;15.70;99.90;;;;;;5129214;27;20051;-60
2022/09/14 03:27:58;;;;;;;10.75;2.90;;;15.70;99.90;;;;;;5122281;27;20063;-61
2022/09/14 03:30:25;;;;;;;14.73;3.22;;;15.70;99.90;;;;;;5128706;27;20035;-61
2022/09/14 03:32:51;;;;;;;5.88;2.45;;;15.70;99.90;;;;;;5120746;27;20051;-60
2022/09/14 03:35:17;;;;;;;5.20;2.53;;;15.70;99.90;;;;;;5121949;27;20139;-60
2022/09/14 03:37:44;;;;;;;7.90;2.78;;;15.70;99.90;;;;;;5124770;27;20374;-60
2022/09/14 03:40:12;;;;;;;6.18;2.25;;;15.70;99.90;;;;;;5125360;27;20127;-61
2022/09/14 03:42:46;;;;;;;15.00;3.30;;;15.70;99.90;;;;;;5121191;27;20051;-60
2022/09/14 03:45:12;;;;;;;6.85;2.72;;;15.70;99.90;;;;;;5100689;28;20035;-60
2022/09/14 03:47:39;;;;;;;5.82;2.63;;;15.70;99.90;;;;;;5129485;27;20035;-60
2022/09/14 03:50:06;;;;;;;6.90;2.67;;;15.70;99.90;;;;;;5106121;28;20104;-61
2022/09/14 03:52:33;;;;;;;6.05;2.53;;;15.70;99.90;;;;;;5101660;28;20129;-60
2022/09/14 03:54:59;;;;;;;7.97;3.05;;;15.70;99.90;;;;;;5126129;27;20050;-60
2022/09/14 03:57:25;;;;;;;10.38;3.08;;;15.70;99.90;;;;;;5108354;27;20057;-60
2022/09/14 03:59:51;;;;;;;7.18;2.95;;;15.70;99.90;;;;;;5109283;27;20050;-61
2022/09/14 04:02:16;;;;;;;7.40;3.30;;;15.70;99.90;;;;;;5118032;28;20054;-60
2022/09/14 04:04:42;;;;;;;9.52;2.83;;;15.70;99.90;;;;;;5124820;28;20473;-60
2022/09/14 04:07:08;;;;;;;8.45;2.90;;;15.70;99.90;;;;;;5095561;27;20043;-60
2022/09/14 04:09:34;;;;;;;8.88;3.10;;;15.70;99.90;;;;;;5131868;27;20147;-61
2022/09/14 04:11:59;;;;;;;5.55;2.85;;;15.70;99.90;;;;;;5128862;27;20092;-61
2022/09/14 04:14:25;;;;;;;6.95;2.78;;;15.70;99.90;;;;;;5128095;28;20526;-62
2022/09/14 04:16:51;;;;;;;6.22;2.97;;;15.70;99.90;;;;;;5099507;28;20452;-65
2022/09/14 04:19:17;;;;;;;8.77;3.25;;;15.70;99.90;;;;;;5094854;28;20040;-60
2022/09/14 04:21:43;;;;;;;7.15;2.70;;;15.70;99.90;;;;;;5122199;28;20099;-60
2022/09/14 04:24:12;;;;;;;10.85;2.97;;;15.60;99.90;;;;;;5107736;28;20039;-60
2022/09/14 04:26:38;;;;;;;8.18;2.85;;;15.70;99.90;;;;;;5102101;27;20051;-60
2022/09/14 04:29:04;;;;;;;7.53;2.67;;;15.70;99.90;;;;;;5126270;27;20054;-60
2022/09/14 04:31:30;;;;;;;7.45;2.72;;;15.70;99.90;;;;;;5118486;28;20047;-60
2022/09/14 04:33:56;;;;;;;8.73;2.67;;;15.70;99.90;;;;;;5120329;28;20051;-61
2022/09/14 04:36:27;;;;;;;10.10;3.03;;;15.70;99.90;;;;;;5093038;28;20040;-62
2022/09/14 04:38:53;;;;;;;6.57;2.97;;;15.70;99.90;;;;;;5114240;27;20516;-62
2022/09/14 04:41:20;;;;;;;8.48;3.10;;;15.70;99.90;;;;;;5101422;28;20062;-60
2022/09/14 04:43:49;;;;;;;5.80;2.85;;;15.60;99.90;;;;;;5106439;28;20501;-60
2022/09/14 04:46:17;;;;;;;9.18;3.17;;;15.60;99.90;;;;;;5126315;28;20109;-60
2022/09/14 04:48:43;;;;;;;9.20;3.15;;;15.60;99.90;;;;;;5110212;28;20083;-61
2022/09/14 04:51:18;;;;;;;7.18;3.10;;;15.60;99.90;;;;;;5105177;28;20082;-61
2022/09/14 04:53:46;;;;;;;8.93;3.13;;;15.60;99.90;;;;;;5105424;28;20051;-60
2022/09/14 04:56:13;;;;;;;5.97;2.78;;;15.60;99.90;;;;;;5117223;28;20395;-61
2022/09/14 04:58:44;;;;;;;14.48;3.47;;;15.60;99.90;;;;;;5131414;27;20084;-62
2022/09/14 05:01:16;;;;;;;8.77;3.28;;;15.60;99.90;;;;;;5133097;27;20094;-60
2022/09/14 05:03:42;;;;;;;5.57;3.10;;;15.60;99.90;;;;;;5115332;27;20492;-61
2022/09/14 05:06:17;;;;;;;7.38;2.60;;;15.60;99.90;;;;;;5124707;27;20035;-60
2022/09/14 05:08:43;;;;;;;8.68;3.40;;;15.60;99.90;;;;;;5131839;27;20468;-60
2022/09/14 05:11:13;;;;;;;7.18;2.90;;;15.60;99.90;;;;;;5132663;27;20035;-60
2022/09/14 05:13:38;;;;;;;7.70;3.30;;;15.60;99.90;;;;;;5121488;27;20054;-60
2022/09/14 05:16:16;;;;;;;8.70;3.00;;;15.60;99.90;;;;;;5129271;27;20051;-60
2022/09/14 05:18:42;;;;;;;9.13;3.55;;;15.60;99.90;;;;;;5125588;27;20130;-60
2022/09/14 05:21:11;;;;;;;7.80;3.08;;;15.60;99.90;;;;;;5113459;27;20050;-60
2022/09/14 05:23:36;;;;;;;7.45;2.55;;;15.60;99.90;;;;;;5112136;27;20058;-60
2022/09/14 05:26:03;;;;;;;11.18;3.13;;;15.60;99.90;;;;;;5133347;27;20055;-65
2022/09/14 05:28:31;;;;;;;8.93;2.90;;;15.60;99.90;;;;;;5108326;27;20062;-61
2022/09/14 05:30:57;;;;;;;8.88;3.55;;;15.60;99.90;;;;;;5104923;27;20047;-61
2022/09/14 05:33:23;;;;;;;6.38;3.30;;;15.60;99.90;;;;;;5125302;27;20047;-61
2022/09/14 05:35:50;;;;;;;8.68;3.38;;;15.60;99.90;;;;;;5107614;28;20442;-61
2022/09/14 05:38:16;;;;;;;8.50;3.10;;;15.60;99.90;;;;;;5102289;27;20139;-62
2022/09/14 05:40:42;;;;;;;9.90;3.20;;;15.60;99.90;;;;;;5128817;27;20046;-61
2022/09/14 05:43:09;;;;;;;7.32;2.78;;;15.60;99.90;;;;;;5130929;27;20055;-60
2022/09/14 05:45:34;;;;;;;6.00;2.70;;;15.60;99.90;;;;;;5129909;27;20085;-61
2022/09/14 05:48:03;;;;;;;7.07;2.75;;;15.70;99.90;;;;;;5101333;27;20066;-60
2022/09/14 05:50:30;;;;;;;8.43;3.03;;;15.70;99.90;;;;;;5119629;27;20128;-60
2022/09/14 05:52:56;;;;;;;7.63;2.88;;;15.70;99.90;;;;;;5137890;27;20055;-60
2022/09/14 05:55:21;;;;;;;7.55;3.00;;;15.70;99.90;;;;;;5106118;27;20368;-62
2022/09/14 05:57:51;;;;;;;11.15;2.90;;;15.80;99.90;;;;;;5130124;27;20093;-60
2022/09/14 06:00:17;;;;;;;12.25;3.00;;;15.70;99.90;;;;;;5119912;27;20047;-60
2022/09/14 06:02:48;;;;;;;10.18;2.65;;;15.80;99.90;;;;;;5088497;27;20108;-61
2022/09/14 06:05:13;;;;;;;7.28;2.40;;;15.80;99.90;;;;;;5131948;27;20066;-60
2022/09/14 06:07:39;;;;;;;9.55;2.53;;;15.80;99.90;;;;;;5131577;27;20476;-61
2022/09/14 06:10:05;;;;;;;6.13;2.10;;;15.80;99.90;;;;;;5113861;27;20038;-61
2022/09/14 06:12:31;;;;;;;6.55;2.00;;;15.80;99.90;;;;;;5102887;28;20043;-61
2022/09/14 06:14:57;;;;;;;3.90;1.85;;;15.80;99.90;;;;;;5088914;28;20039;-61
2022/09/14 06:17:23;;;;;;;9.15;2.42;;;15.90;99.90;;;;;;5123970;27;20043;-60
2022/09/14 06:19:49;;;;;;;6.13;2.03;;;15.90;99.90;;;;;;5111809;27;20039;-62
2022/09/14 06:22:14;;;;;;;5.22;2.05;;;15.90;99.90;;;;;;5121606;27;20050;-60
2022/09/14 06:24:40;;;;;;;6.93;2.20;;;16.00;99.90;;;;;;5125686;27;20047;-62
2022/09/14 06:27:07;;;;;;;5.95;2.00;;;16.00;99.90;;;;;;5132608;27;20071;-61
2022/09/14 06:29:34;;;;;;;5.40;2.10;;;16.00;99.90;;;;;;5111394;27;20111;-60
2022/09/14 06:32:00;;;;;;;7.47;2.25;;;16.10;99.90;;;;;;5121601;27;20405;-61
2022/09/14 06:34:25;;;;;;;5.50;2.13;;;16.10;99.90;;;;;;5119254;27;20048;-61
2022/09/14 06:36:51;;;;;;;5.88;2.20;;;16.10;99.90;;;;;;5126562;27;20046;-60
2022/09/14 06:39:17;;;;;;;6.75;1.98;;;16.10;99.90;;;;;;5075270;28;20086;-61
2022/09/14 06:41:43;;;;;;;5.43;1.67;;;16.20;99.90;;;;;;5126641;27;20042;-60
2022/09/14 06:44:09;;;;;;;5.28;1.90;;;16.20;99.90;;;;;;5075064;28;20761;-61
2022/09/14 06:46:37;;;;;;;9.52;1.92;;;16.20;99.90;;;;;;5121996;27;20066;-61
2022/09/14 06:49:09;;;;;;;6.10;2.17;;;16.20;99.90;;;;;;5120211;27;20112;-60
2022/09/14 06:51:37;;;;;;;9.15;2.38;;;16.30;99.90;;;;;;5112858;27;20046;-63
2022/09/14 06:54:04;;;;;;;4.10;1.67;;;16.30;99.90;;;;;;5135200;27;20511;-61
2022/09/14 06:56:32;;;;;;;3.08;1.50;;;16.40;99.90;;;;;;5139723;27;20062;-62
2022/09/14 06:58:58;;;;;;;6.45;1.90;;;16.40;99.90;;;;;;5110097;27;20042;-63
2022/09/14 07:01:24;;;;;;;6.22;1.80;;;16.40;99.90;;;;;;5112464;27;20046;-63
2022/09/14 07:03:51;;;;;;;5.82;1.95;;;16.40;99.90;;;;;;5107033;27;20055;-61
2022/09/14 07:06:22;;;;;;;4.60;1.60;;;16.50;99.90;;;;;;5078020;28;20546;-65
2022/09/14 07:08:49;;;;;;;5.53;1.80;;;16.50;99.90;;;;;;5113526;27;20079;-61
2022/09/14 07:11:18;;;;;;;8.32;2.00;;;16.60;99.90;;;;;;5094561;27;20048;-63
2022/09/14 07:13:44;;;;;;;5.20;1.80;;;16.60;99.90;;;;;;5096122;27;20116;-62
2022/09/14 07:16:11;;;;;;;5.50;2.00;;;16.60;99.90;;;;;;5110617;28;20556;-62
2022/09/14 07:18:37;;;;;;;6.43;2.00;;;16.70;99.90;;;;;;5110746;28;20465;-61
2022/09/14 07:21:14;;;;;;;4.35;1.83;;;16.80;99.90;;;;;;5091977;28;20054;-62
2022/09/14 07:23:42;;;;;;;4.55;1.70;;;16.80;99.90;;;;;;5106910;27;20055;-62
2022/09/14 07:26:17;;;;;;;5.60;1.92;;;16.90;99.90;;;;;;5094473;28;20437;-61
2022/09/14 07:28:46;;;;;;;6.93;1.92;;;16.90;99.90;;;;;;5093420;27;20087;-61
2022/09/14 07:31:23;;;;;;;5.40;1.52;;;16.90;99.90;;;;;;5092606;28;20483;-61
2022/09/14 07:33:54;;;;;;;7.10;2.17;;;17.00;99.90;;;;;;5117603;27;20120;-61
2022/09/14 07:36:20;;;;;;;6.43;1.67;;;17.00;99.90;;;;;;5121053;27;20150;-65
2022/09/14 07:38:46;;;;;;;7.50;1.88;;;17.10;99.90;;;;;;5130956;27;20047;-62
2022/09/14 07:41:12;;;;;;;6.55;1.63;;;17.20;99.90;;;;;;5112735;27;20120;-61
2022/09/14 07:43:38;;;;;;;5.95;1.83;;;17.20;99.90;;;;;;5126347;27;20062;-60
2022/09/14 07:46:05;;;;;;;10.88;2.33;;;17.20;99.90;;;;;;5092488;28;20396;-61
2022/09/14 07:48:32;;;;;;;6.97;1.90;;;17.30;99.90;;;;;;5113810;27;20078;-61
2022/09/14 07:51:06;;;;;;;6.13;2.00;;;17.30;99.90;;;;;;5082721;28;20043;-62
2022/09/14 07:53:39;;;;;;;10.63;2.13;;;17.30;99.90;;;;;;5110145;27;20058;-61
2022/09/14 07:56:09;;;;;;;6.97;1.63;;;17.40;99.90;;;;;;5127840;27;20051;-61
2022/09/14 07:58:35;;;;;;;6.57;1.50;;;17.50;99.90;;;;;;5121543;27;20039;-62
2022/09/14 08:01:07;;;;;;;5.72;1.67;;;17.60;99.90;;;;;;5096642;27;20390;-62
2022/09/14 08:03:35;;;;;;;5.60;1.73;;;17.80;99.90;;;;;;5109658;28;20057;-62
2022/09/14 08:06:06;;;;;;;9.57;2.22;;;18.00;99.90;;;;;;5103850;28;20058;-62
2022/09/14 08:08:34;;;;;;;6.97;1.80;;;18.30;99.90;;;;;;5111205;28;20048;-61
2022/09/14 08:11:06;;;;;;;9.63;1.70;;;19.10;99.90;;;;;;5112882;28;20127;-61
2022/09/14 08:13:33;;;;;;;10.38;1.80;;;20.00;99.90;;;;;;5098105;27;20056;-62
2022/09/14 08:16:00;;;;;;;6.50;1.70;;;20.60;99.90;;;;;;5116075;27;20115;-62
2022/09/14 08:18:27;;;;;;;5.20;1.60;;;21.20;99.90;;;;;;5110306;28;20052;-65
2022/09/14 08:20:53;;;;;;;9.23;2.38;;;21.10;99.90;;;;;;5122372;28;20412;-61
2022/09/14 08:23:19;;;;;;;5.57;1.35;;;21.20;99.90;;;;;;5092905;28;20039;-61
2022/09/14 08:25:44;;;;;;;7.95;1.80;;;21.10;99.90;;;;;;5121085;27;20039;-62
2022/09/14 08:28:10;;;;;;;7.88;1.80;;;20.90;99.90;;;;;;5115428;28;20043;-63
2022/09/14 08:30:36;;;;;;;9.77;1.95;;;20.90;99.90;;;;;;5113715;27;20040;-63
2022/09/14 08:33:01;;;;;;;7.05;1.45;;;20.80;99.90;;;;;;5111799;28;20039;-61
2022/09/14 08:35:27;;;;;;;6.55;1.52;;;20.70;99.90;;;;;;5120897;27;20449;-63
2022/09/14 08:37:53;;;;;;;4.97;1.80;;;21.10;99.90;;;;;;5124084;27;20046;-62
2022/09/14 08:40:18;;;;;;;5.43;1.40;;;21.40;99.90;;;;;;5096501;27;20337;-63
2022/09/14 08:42:46;;;;;;;5.63;1.63;;;21.90;99.90;;;;;;5092028;27;20113;-62
2022/09/14 08:45:15;;;;;;;11.23;1.73;;;23.00;99.90;;;;;;5121949;27;20054;-62
2022/09/14 08:47:42;;;;;;;6.70;1.67;;;23.70;98.40;;;;;;5122913;27;20146;-63
2022/09/14 08:50:16;;;;;;;6.22;1.77;;;23.90;96.60;;;;;;5117476;27;20054;-63
2022/09/14 08:52:53;;;;;;;7.63;1.70;;;23.70;96.00;;;;;;5114905;27;20090;-62
2022/09/14 08:55:30;;;;;;;6.82;1.70;;;23.70;96.00;;;;;;5123524;27;20043;-62
2022/09/14 08:58:00;;;;;;;6.07;1.70;;;24.00;95.80;;;;;;5109657;27;20047;-62
2022/09/14 09:01:00;;;;;;;6.03;1.50;;;24.40;95.80;;;;;;5124428;27;20088;-62
2022/09/14 09:04:07;;;;;;;6.90;1.73;;;24.80;94.50;;;;;;5103300;27;20531;-62
2022/09/14 09:06:33;;;;;;;5.30;1.23;;;25.20;93.40;;;;;;5100430;27;20064;-66
2022/09/14 09:09:13;;;;;;;7.30;1.58;;;24.60;93.20;;;;;;5095064;28;20054;-63
2022/09/14 09:11:42;;;;;;;8.40;1.90;;;24.10;93.70;;;;;;5097944;27;20150;-62
2022/09/14 09:14:17;;;;;;;6.68;1.70;;;23.70;93.90;;;;;;5113486;28;20058;-63
2022/09/14 09:16:44;;;;;;;7.85;1.63;;;23.30;94.10;;;;;;5121897;27;20393;-63
2022/09/14 09:19:16;;;;;;;7.85;1.55;;;22.90;94.70;;;;;;5096878;27;20047;-63
2022/09/14 09:21:46;;;;;;;7.32;1.45;;;22.60;95.20;;;;;;5114073;27;20109;-62
2022/09/14 09:24:15;;;;;;;5.35;1.45;;;22.30;95.20;;;;;;5107511;27;20126;-61
2022/09/14 09:26:41;;;;;;;5.95;1.30;;;22.00;95.30;;;;;;5106324;27;20039;-61
2022/09/14 09:29:08;;;;;;;5.53;1.70;;;21.70;95.70;;;;;;5116060;27;20043;-61
2022/09/14 09:31:39;;;;;;;5.95;1.30;;;21.40;96.10;;;;;;5116421;27;20183;-61
2022/09/14 09:34:05;;;;;;;6.13;1.42;;;21.20;96.50;;;;;;5115055;27;20044;-62
2022/09/14 09:36:45;;;;;;;10.55;1.95;;;20.90;96.90;;;;;;5097982;27;20409;-62
2022/09/14 09:39:11;;;;;;;6.35;1.50;;;20.60;97.50;;;;;;5096072;27;20039;-62
2022/09/14 09:41:57;;;;;;;9.93;1.50;;;20.40;97.90;;;;;;5094577;27;20039;-61
2022/09/14 09:44:23;;;;;;;5.85;1.60;;;20.30;98.20;;;;;;5095736;28;20128;-61
2022/09/14 09:47:00;;;;;;;6.47;1.70;;;20.10;98.60;;;;;;5112384;28;20048;-62
2022/09/14 09:49:31;;;;;;;7.10;1.55;;;20.10;98.70;;;;;;5104630;27;20114;-61
2022/09/14 09:52:17;;;;;;;9.27;1.55;;;20.10;98.80;;;;;;5111619;27;20500;-61
2022/09/14 09:54:50;;;;;;;7.35;1.90;;;20.20;99.20;;;;;;5095782;28;20048;-61
2022/09/14 09:57:31;;;;;;;6.45;1.60;;;20.30;99.20;;;;;;5103125;27;20446;-61
2022/09/14 10:00:13;;;;;;;8.65;1.98;;;20.30;98.70;;;;;;5116011;27;20042;-61
2022/09/14 10:02:39;;;;;;;8.27;1.77;;;20.40;98.40;;;;;;5112427;27;20795;-61
2022/09/14 10:05:08;;;;;;;8.60;1.63;;;20.50;97.70;;;;;;5085520;27;20043;-61
2022/09/14 10:07:39;;;;;;;9.10;1.40;;;20.70;97.90;;;;;;5117372;27;20160;-61
2022/09/14 10:10:11;;;;;;;6.68;1.70;;;20.70;97.70;;;;;;5096821;28;20048;-62
2022/09/14 10:12:38;;;;;;;6.38;1.52;;;20.70;97.60;;;;;;5117274;27;20047;-61
2022/09/14 10:15:07;;;;;;;6.00;1.48;;;20.90;97.70;;;;;;5115604;27;20039;-62
2022/09/14 10:17:33;;;;;;;3.75;1.45;;;21.00;97.30;;;;;;5111710;28;20075;-61
2022/09/14 10:19:59;;;;;;;6.07;1.35;;;21.00;96.90;;;;;;5112590;27;20078;-61
2022/09/14 10:22:29;;;;;;;6.47;1.67;;;21.10;97.30;;;;;;5085017;28;20067;-61
2022/09/14 10:25:24;;;;;;;4.97;1.35;;;21.30;96.80;;;;;;5111495;27;20039;-62
2022/09/14 10:27:55;;;;;;;6.40;1.38;;;21.40;96.30;;;;;;5092129;28;20055;-61
2022/09/14 10:30:38;;;;;;;4.18;1.50;;;21.40;96.00;;;;;;5111903;27;20055;-61
2022/09/14 10:33:07;;;;;;;7.20;1.80;;;21.50;95.90;;;;;;5110554;27;20483;-61
2022/09/14 10:35:57;;;;;;;6.10;1.58;;;21.50;95.60;;;;;;5096633;27;20055;-61
2022/09/14 10:38:35;;;;;;;12.25;1.63;;;21.50;95.50;;;;;;5079558;28;20064;-61
2022/09/14 10:41:16;;;;;;;5.55;1.33;;;21.40;95.80;;;;;;5075999;28;20134;-65
2022/09/14 10:43:48;;;;;;;4.83;1.33;;;21.40;95.80;;;;;;5107246;27;20519;-60
2022/09/14 10:46:20;;;;;;;5.47;1.52;;;21.40;95.30;;;;;;5097298;27;20491;-60
2022/09/14 10:49:12;;;;;;;4.97;1.35;;;21.40;95.90;;;;;;5114147;27;20468;-61
2022/09/14 10:52:35;;;;;;;4.95;1.50;;;21.50;96.10;;;;;;5084527;27;20059;-60
2022/09/14 10:55:44;;;;;;;5.22;1.63;;;21.70;95.30;;;;;;5045854;28;20037;-61
2022/09/14 10:58:24;;;;;;;8.63;1.90;;;21.80;95.30;;;;;;5051021;28;20858;-61
2022/09/14 11:00:58;;;;;;;3.97;1.30;;;21.80;95.40;;;;;;5102978;27;20106;-61
2022/09/14 11:03:27;;;;;;;4.88;1.50;;;21.90;95.30;;;;;;5112064;27;20044;-61
2022/09/14 11:06:40;;;;;;;9.50;1.58;;;21.90;95.40;;;;;;5110798;28;20047;-61
2022/09/14 11:09:14;;;;;;;6.35;1.50;;;21.90;95.40;;;;;;5027396;28;20216;-60
2022/09/14 11:11:48;;;;;;;6.38;1.48;;;21.80;95.10;;;;;;5006158;28;20124;-60
2022/09/14 11:14:35;;;;;;;9.13;2.03;;;21.60;94.80;;;;;;5078878;27;20050;-60
2022/09/14 11:17:22;;;;;;;8.90;1.70;;;21.40;95.40;;;;;;5125232;27;20082;-61
2022/09/14 11:19:56;;;;;;;6.78;1.60;;;21.30;95.60;;;;;;5118613;27;20043;-62
2022/09/14 11:22:53;;;;;;;5.53;1.50;;;21.20;95.70;;;;;;5105932;28;20047;-61
2022/09/14 11:25:43;;;;;;;5.70;1.50;;;21.20;95.60;;;;;;5133573;27;20047;-61
2022/09/14 11:28:17;;;;;;;4.90;1.40;;;21.20;95.40;;;;;;5131095;27;20387;-61
2022/09/14 11:30:52;;;;;;;4.80;1.30;;;21.40;95.40;;;;;;5131592;27;20419;-62
2022/09/14 11:33:27;;;;;;;7.15;1.73;;;21.60;95.10;;;;;;5107315;27;20035;-65
2022/09/14 11:35:59;;;;;;;9.05;1.60;;;21.80;94.90;;;;;;5114289;27;20047;-65
2022/09/14 11:38:34;;;;;;;8.07;1.70;;;21.70;94.70;;;;;;5134455;27;20051;-61
2022/09/14 11:41:11;;;;;;;7.53;1.73;;;21.70;94.90;;;;;;5131544;27;20061;-61
2022/09/14 11:44:10;;;;;;;6.07;1.65;;;21.60;95.20;;;;;;5124229;27;20062;-61
2022/09/14 11:46:45;;;;;;;7.15;1.60;;;21.60;95.10;;;;;;5115669;27;20059;-61
2022/09/14 11:49:24;;;;;;;8.63;1.70;;;21.60;95.10;;;;;;5131215;27;20050;-61
2022/09/14 11:51:53;;;;;;;4.97;1.40;;;21.40;95.10;;;;;;5098047;27;20050;-61
2022/09/14 11:54:20;;;;;;;6.53;1.73;;;21.30;95.50;;;;;;5120183;27;20036;-61
2022/09/14 11:56:49;;;;;;;5.45;1.55;;;21.20;95.40;;;;;;5093797;28;20119;-61
2022/09/14 11:59:54;;;;;;;6.70;1.65;;;21.10;95.20;;;;;;5103612;28;20391;-62
2022/09/14 12:02:22;;;;;;;5.90;1.80;;;21.10;95.60;;;;;;5064511;28;20063;-62
2022/09/14 12:05:06;;;;;;;7.43;2.20;;;21.10;95.40;;;;;;5107022;27;20055;-62
2022/09/14 12:07:41;;;;;;;7.47;2.17;;;21.10;95.10;;;;;;5115862;27;20122;-63
2022/09/14 12:10:13;;;;;;;5.57;1.42;;;21.10;95.30;;;;;;5110128;28;20051;-62
2022/09/14 12:12:53;;;;;;;5.65;1.75;;;21.30;95.60;;;;;;5110741;27;20054;-62
2022/09/14 12:15:25;;;;;;;7.30;1.50;;;21.50;95.30;;;;;;5116274;27;20032;-63
2022/09/14 12:18:00;;;;;;;6.47;1.27;;;21.70;95.10;;;;;;5114337;28;20373;-62
2022/09/14 12:20:41;;;;;;;5.30;1.70;;;21.90;94.70;;;;;;5116335;28;20043;-62
2022/09/14 12:23:38;;;;;;;5.80;1.60;;;21.90;95.00;;;;;;5114059;28;20056;-62
2022/09/14 12:26:09;;;;;;;5.90;1.50;;;21.80;94.70;;;;;;5115427;27;20404;-63
2022/09/14 12:28:35;;;;;;;5.57;1.50;;;21.90;95.00;;;;;;5114877;27;20039;-63
2022/09/14 12:31:03;;;;;;;7.95;1.60;;;21.80;94.40;;;;;;5119611;28;20378;-63
2022/09/14 12:33:32;;;;;;;4.93;1.55;;;21.70;94.80;;;;;;5095296;28;20085;-62
2022/09/14 12:36:05;;;;;;;7.88;1.95;;;21.50;94.40;;;;;;5119164;28;20123;-61
2022/09/14 12:38:31;;;;;;;8.05;1.80;;;21.40;95.00;;;;;;5110013;27;20477;-61
2022/09/14 12:41:12;;;;;;;9.65;1.88;;;21.30;95.10;;;;;;5092051;28;20098;-61
2022/09/14 12:43:40;;;;;;;6.30;1.30;;;21.20;94.80;;;;;;5109736;28;20055;-62
2022/09/14 12:46:21;;;;;;;7.78;1.70;;;21.10;94.70;;;;;;5109368;28;20094;-62
2022/09/14 12:48:47;;;;;;;5.18;1.50;;;21.30;94.90;;;;;;5114734;28;20469;-62
2022/09/14 12:51:31;;;;;;;9.27;1.55;;;21.40;94.80;;;;;;5116086;27;20054;-62
2022/09/14 12:54:07;;;;;;;5.65;1.52;;;21.50;95.10;;;;;;5112356;28;20071;-62
2022/09/14 12:56:36;;;;;;;5.35;1.50;;;21.40;95.10;;;;;;5094441;28;20054;-62
2022/09/14 12:59:11;;;;;;;5.25;1.50;;;21.50;95.30;;;;;;5112570;28;20307;-63
2022/09/14 13:01:55;;;;;;;10.30;1.98;;;21.40;95.20;;;;;;5117123;27;20043;-63
2022/09/14 13:04:26;;;;;;;13.98;1.63;;;21.40;95.30;;;;;;5113776;27;20050;-62
2022/09/14 13:06:54;;;;;;;6.68;1.40;;;21.40;95.40;;;;;;5109720;28;20380;-62
2022/09/14 13:09:22;;;;;;;6.35;1.42;;;21.30;95.10;;;;;;5110287;28;20044;-63